sensor_id;sensor_type;location;lat;lon;timestamp;temperature;humidity
75296;DHT22;64623;44.738;37.804;2024-02-21T00:00:59;2.85;118.99
75296;DHT22;64623;44.738;37.804;2024-02-21T00:02:02;2.87;118.99
75296;DHT22;64623;44.738;37.804;2024-02-21T00:03:06;2.85;118.99
75296;DHT22;64623;44.738;37.804;2024-02-21T00:04:09;2.82;118.99
75296;DHT22;64623;44.738;37.804;2024-02-21T00:05:12;2.84;118.99
75296;DHT22;64623;44.738;37.804;2024-02-21T00:06:16;2.85;118.99
75296;DHT22;64623;44.738;37.804;2024-02-21T00:07:19;2.86;118.99
75296;DHT22;64623;44.738;37.804;2024-02-21T00:08:22;2.84;118.99
75296;DHT22;64623;44.738;37.804;2024-02-21T00:09:26;2.86;118.99
75296;DHT22;64623;44.738;37.804;2024-02-21T00:10:29;2.87;118.99
75296;DHT22;64623;44.738;37.804;2024-02-21T00:11:34;2.90;118.99
75296;DHT22;64623;44.738;37.804;2024-02-21T00:12:37;2.88;118.99
75296;DHT22;64623;44.738;37.804;2024-02-21T00:13:41;2.89;118.99
75296;DHT22;64623;44.738;37.804;2024-02-21T00:14:44;2.94;118.99
75296;DHT22;64623;44.738;37.804;2024-02-21T00:15:47;2.93;118.99
75296;DHT22;64623;44.738;37.804;2024-02-21T00:16:50;2.93;118.99
75296;DHT22;64623;44.738;37.804;2024-02-21T00:17:54;2.89;118.99
75296;DHT22;64623;44.738;37.804;2024-02-21T00:18:57;2.95;118.99
75296;DHT22;64623;44.738;37.804;2024-02-21T00:20:00;3.00;118.99
75296;DHT22;64623;44.738;37.804;2024-02-21T00:21:04;3.02;118.99
75296;DHT22;64623;44.738;37.804;2024-02-21T00:22:08;3.00;118.99
75296;DHT22;64623;44.738;37.804;2024-02-21T00:23:11;3.02;118.99
75296;DHT22;64623;44.738;37.804;2024-02-21T00:24:14;3.03;118.99
75296;DHT22;64623;44.738;37.804;2024-02-21T00:25:19;3.01;118.99
75296;DHT22;64623;44.738;37.804;2024-02-21T00:26:22;3.01;118.99
75296;DHT22;64623;44.738;37.804;2024-02-21T00:27:26;3.03;118.99
75296;DHT22;64623;44.738;37.804;2024-02-21T00:28:29;3.06;118.99
75296;DHT22;64623;44.738;37.804;2024-02-21T00:29:32;3.10;118.99
75296;DHT22;64623;44.738;37.804;2024-02-21T00:30:37;3.10;118.99
75296;DHT22;64623;44.738;37.804;2024-02-21T00:31:41;3.06;118.99
75296;DHT22;64623;44.738;37.804;2024-02-21T00:32:44;3.08;118.99
75296;DHT22;64623;44.738;37.804;2024-02-21T00:33:48;3.08;118.99
75296;DHT22;64623;44.738;37.804;2024-02-21T00:34:51;3.08;118.99
75296;DHT22;64623;44.738;37.804;2024-02-21T00:35:55;3.06;118.99
75296;DHT22;64623;44.738;37.804;2024-02-21T00:36:58;3.05;118.99
75296;DHT22;64623;44.738;37.804;2024-02-21T00:38:01;3.09;118.99
75296;DHT22;64623;44.738;37.804;2024-02-21T00:39:06;3.09;118.99
75296;DHT22;64623;44.738;37.804;2024-02-21T00:40:09;3.05;118.99
75296;DHT22;64623;44.738;37.804;2024-02-21T00:41:13;3.04;118.99
75296;DHT22;64623;44.738;37.804;2024-02-21T00:42:16;3.06;118.99
75296;DHT22;64623;44.738;37.804;2024-02-21T00:43:19;3.04;118.99
75296;DHT22;64623;44.738;37.804;2024-02-21T00:44:26;3.05;118.99
75296;DHT22;64623;44.738;37.804;2024-02-21T00:45:29;3.05;118.99
75296;DHT22;64623;44.738;37.804;2024-02-21T00:46:33;2.99;118.99
75296;DHT22;64623;44.738;37.804;2024-02-21T00:47:36;2.99;118.99
75296;DHT22;64623;44.738;37.804;2024-02-21T00:48:39;2.97;118.99
75296;DHT22;64623;44.738;37.804;2024-02-21T00:49:43;2.95;118.99
75296;DHT22;64623;44.738;37.804;2024-02-21T00:50:46;2.94;118.99
75296;DHT22;64623;44.738;37.804;2024-02-21T00:51:49;2.89;118.99
75296;DHT22;64623;44.738;37.804;2024-02-21T00:52:52;2.89;118.99
75296;DHT22;64623;44.738;37.804;2024-02-21T00:53:56;2.87;118.99
75296;DHT22;64623;44.738;37.804;2024-02-21T00:54:59;2.82;118.99
75296;DHT22;64623;44.738;37.804;2024-02-21T00:56:03;2.83;118.99
75296;DHT22;64623;44.738;37.804;2024-02-21T00:57:06;2.80;118.99
75296;DHT22;64623;44.738;37.804;2024-02-21T00:58:09;2.78;118.99
75296;DHT22;64623;44.738;37.804;2024-02-21T00:59:12;2.76;118.99
75296;DHT22;64623;44.738;37.804;2024-02-21T01:00:16;2.74;118.99
75296;DHT22;64623;44.738;37.804;2024-02-21T01:01:24;2.79;118.99
75296;DHT22;64623;44.738;37.804;2024-02-21T01:02:28;2.76;118.99
75296;DHT22;64623;44.738;37.804;2024-02-21T01:03:34;2.75;118.99
75296;DHT22;64623;44.738;37.804;2024-02-21T01:04:37;2.71;118.99
75296;DHT22;64623;44.738;37.804;2024-02-21T01:05:41;2.67;118.99
75296;DHT22;64623;44.738;37.804;2024-02-21T01:06:44;2.66;118.99
75296;DHT22;64623;44.738;37.804;2024-02-21T01:07:48;2.60;118.99
75296;DHT22;64623;44.738;37.804;2024-02-21T01:08:51;2.65;118.99
75296;DHT22;64623;44.738;37.804;2024-02-21T01:09:54;2.58;118.99
75296;DHT22;64623;44.738;37.804;2024-02-21T01:10:58;2.61;118.99
75296;DHT22;64623;44.738;37.804;2024-02-21T01:12:01;2.60;118.99
75296;DHT22;64623;44.738;37.804;2024-02-21T01:13:04;2.59;118.99
75296;DHT22;64623;44.738;37.804;2024-02-21T01:14:08;2.64;118.99
75296;DHT22;64623;44.738;37.804;2024-02-21T01:15:11;2.66;118.99
75296;DHT22;64623;44.738;37.804;2024-02-21T01:16:15;2.64;118.99
75296;DHT22;64623;44.738;37.804;2024-02-21T01:17:18;2.64;118.99
75296;DHT22;64623;44.738;37.804;2024-02-21T01:18:21;2.65;118.99
75296;DHT22;64623;44.738;37.804;2024-02-21T01:19:25;2.64;118.99
75296;DHT22;64623;44.738;37.804;2024-02-21T01:20:28;2.56;118.99
75296;DHT22;64623;44.738;37.804;2024-02-21T01:21:31;2.51;118.99
75296;DHT22;64623;44.738;37.804;2024-02-21T01:22:35;2.46;118.99
75296;DHT22;64623;44.738;37.804;2024-02-21T01:23:38;2.46;118.99
75296;DHT22;64623;44.738;37.804;2024-02-21T01:24:42;2.47;118.99
75296;DHT22;64623;44.738;37.804;2024-02-21T01:25:45;2.44;118.99
75296;DHT22;64623;44.738;37.804;2024-02-21T01:26:49;2.41;118.99
75296;DHT22;64623;44.738;37.804;2024-02-21T01:27:52;2.40;118.99
75296;DHT22;64623;44.738;37.804;2024-02-21T01:28:55;2.40;118.99
75296;DHT22;64623;44.738;37.804;2024-02-21T01:29:58;2.41;118.99
75296;DHT22;64623;44.738;37.804;2024-02-21T01:31:02;2.44;118.99
75296;DHT22;64623;44.738;37.804;2024-02-21T01:32:06;2.37;118.99
75296;DHT22;64623;44.738;37.804;2024-02-21T01:33:09;2.34;118.99
75296;DHT22;64623;44.738;37.804;2024-02-21T01:34:13;2.34;118.99
75296;DHT22;64623;44.738;37.804;2024-02-21T01:35:16;2.34;118.99
75296;DHT22;64623;44.738;37.804;2024-02-21T01:36:20;2.38;118.99
75296;DHT22;64623;44.738;37.804;2024-02-21T01:37:23;2.31;118.99
75296;DHT22;64623;44.738;37.804;2024-02-21T01:38:26;2.29;118.99
75296;DHT22;64623;44.738;37.804;2024-02-21T01:39:30;2.29;118.99
75296;DHT22;64623;44.738;37.804;2024-02-21T01:40:33;2.32;118.99
75296;DHT22;64623;44.738;37.804;2024-02-21T01:41:36;2.28;118.99
75296;DHT22;64623;44.738;37.804;2024-02-21T01:42:40;2.29;118.99
75296;DHT22;64623;44.738;37.804;2024-02-21T01:43:46;2.30;118.99
75296;DHT22;64623;44.738;37.804;2024-02-21T01:44:49;2.28;118.99
75296;DHT22;64623;44.738;37.804;2024-02-21T01:45:55;2.27;118.99
75296;DHT22;64623;44.738;37.804;2024-02-21T01:46:59;2.25;118.99
75296;DHT22;64623;44.738;37.804;2024-02-21T01:48:02;2.24;118.99
75296;DHT22;64623;44.738;37.804;2024-02-21T01:49:06;2.23;118.99
75296;DHT22;64623;44.738;37.804;2024-02-21T01:50:09;2.23;118.99
75296;DHT22;64623;44.738;37.804;2024-02-21T01:51:13;2.22;118.99
75296;DHT22;64623;44.738;37.804;2024-02-21T01:52:17;2.23;118.99
75296;DHT22;64623;44.738;37.804;2024-02-21T01:53:23;2.22;118.99
75296;DHT22;64623;44.738;37.804;2024-02-21T01:54:28;2.19;118.99
75296;DHT22;64623;44.738;37.804;2024-02-21T01:55:31;2.17;118.99
75296;DHT22;64623;44.738;37.804;2024-02-21T01:56:35;2.21;118.99
75296;DHT22;64623;44.738;37.804;2024-02-21T01:57:42;2.21;118.99
75296;DHT22;64623;44.738;37.804;2024-02-21T01:58:50;2.19;118.99
75296;DHT22;64623;44.738;37.804;2024-02-21T01:59:54;2.17;118.99
75296;DHT22;64623;44.738;37.804;2024-02-21T02:00:57;2.20;118.99
75296;DHT22;64623;44.738;37.804;2024-02-21T02:02:02;2.16;118.99
75296;DHT22;64623;44.738;37.804;2024-02-21T02:03:05;2.17;118.99
75296;DHT22;64623;44.738;37.804;2024-02-21T02:04:10;2.15;118.99
75296;DHT22;64623;44.738;37.804;2024-02-21T02:05:14;2.15;118.99
75296;DHT22;64623;44.738;37.804;2024-02-21T02:06:17;2.13;118.99
75296;DHT22;64623;44.738;37.804;2024-02-21T02:07:20;2.10;118.99
75296;DHT22;64623;44.738;37.804;2024-02-21T02:08:24;2.09;118.99
75296;DHT22;64623;44.738;37.804;2024-02-21T02:09:27;2.09;118.99
75296;DHT22;64623;44.738;37.804;2024-02-21T02:10:31;2.08;118.99
75296;DHT22;64623;44.738;37.804;2024-02-21T02:11:35;2.06;118.99
75296;DHT22;64623;44.738;37.804;2024-02-21T02:12:39;2.07;118.99
75296;DHT22;64623;44.738;37.804;2024-02-21T02:13:42;2.13;118.99
75296;DHT22;64623;44.738;37.804;2024-02-21T02:14:45;2.13;118.99
75296;DHT22;64623;44.738;37.804;2024-02-21T02:15:49;2.16;118.99
75296;DHT22;64623;44.738;37.804;2024-02-21T02:16:52;2.13;118.99
75296;DHT22;64623;44.738;37.804;2024-02-21T02:17:56;2.12;118.99
75296;DHT22;64623;44.738;37.804;2024-02-21T02:18:59;2.10;118.99
75296;DHT22;64623;44.738;37.804;2024-02-21T02:20:02;2.11;118.99
75296;DHT22;64623;44.738;37.804;2024-02-21T02:21:15;2.12;118.99
75296;DHT22;64623;44.738;37.804;2024-02-21T02:22:32;2.11;118.99
75296;DHT22;64623;44.738;37.804;2024-02-21T02:23:38;2.10;118.99
75296;DHT22;64623;44.738;37.804;2024-02-21T02:24:42;2.06;118.99
75296;DHT22;64623;44.738;37.804;2024-02-21T02:25:47;2.08;118.99
75296;DHT22;64623;44.738;37.804;2024-02-21T02:26:56;2.08;118.99
75296;DHT22;64623;44.738;37.804;2024-02-21T02:28:00;2.08;118.99
75296;DHT22;64623;44.738;37.804;2024-02-21T02:29:03;2.07;118.99
75296;DHT22;64623;44.738;37.804;2024-02-21T02:30:07;2.03;118.99
75296;DHT22;64623;44.738;37.804;2024-02-21T02:31:10;2.03;118.99
75296;DHT22;64623;44.738;37.804;2024-02-21T02:32:14;2.05;118.99
75296;DHT22;64623;44.738;37.804;2024-02-21T02:33:17;2.07;118.99
75296;DHT22;64623;44.738;37.804;2024-02-21T02:34:20;2.12;118.99
75296;DHT22;64623;44.738;37.804;2024-02-21T02:35:24;2.11;118.99
75296;DHT22;64623;44.738;37.804;2024-02-21T02:36:27;2.13;118.99
75296;DHT22;64623;44.738;37.804;2024-02-21T02:37:30;2.15;118.99
75296;DHT22;64623;44.738;37.804;2024-02-21T02:38:33;2.15;118.99
75296;DHT22;64623;44.738;37.804;2024-02-21T02:39:37;2.16;118.99
75296;DHT22;64623;44.738;37.804;2024-02-21T02:40:41;2.16;118.99
75296;DHT22;64623;44.738;37.804;2024-02-21T02:41:44;2.16;118.99
75296;DHT22;64623;44.738;37.804;2024-02-21T02:42:48;2.19;118.99
75296;DHT22;64623;44.738;37.804;2024-02-21T02:43:52;2.25;118.99
75296;DHT22;64623;44.738;37.804;2024-02-21T02:44:55;2.28;118.99
75296;DHT22;64623;44.738;37.804;2024-02-21T02:46:00;2.31;118.99
75296;DHT22;64623;44.738;37.804;2024-02-21T02:47:03;2.37;118.99
75296;DHT22;64623;44.738;37.804;2024-02-21T02:48:07;2.38;118.99
75296;DHT22;64623;44.738;37.804;2024-02-21T02:49:10;2.39;118.99
75296;DHT22;64623;44.738;37.804;2024-02-21T02:50:14;2.39;118.99
75296;DHT22;64623;44.738;37.804;2024-02-21T02:51:18;2.40;118.99
75296;DHT22;64623;44.738;37.804;2024-02-21T02:52:21;2.41;118.99
75296;DHT22;64623;44.738;37.804;2024-02-21T02:53:24;2.43;118.99
75296;DHT22;64623;44.738;37.804;2024-02-21T02:54:28;2.42;118.99
75296;DHT22;64623;44.738;37.804;2024-02-21T02:55:31;2.39;118.99
75296;DHT22;64623;44.738;37.804;2024-02-21T02:56:34;2.32;118.99
75296;DHT22;64623;44.738;37.804;2024-02-21T02:57:37;2.38;118.99
75296;DHT22;64623;44.738;37.804;2024-02-21T02:58:42;2.41;118.99
75296;DHT22;64623;44.738;37.804;2024-02-21T02:59:49;2.38;118.99
75296;DHT22;64623;44.738;37.804;2024-02-21T03:00:52;2.37;118.99
75296;DHT22;64623;44.738;37.804;2024-02-21T03:01:55;2.36;118.99
75296;DHT22;64623;44.738;37.804;2024-02-21T03:02:59;2.34;118.99
75296;DHT22;64623;44.738;37.804;2024-02-21T03:04:02;2.34;118.99
75296;DHT22;64623;44.738;37.804;2024-02-21T03:06:18;2.34;118.99
75296;DHT22;64623;44.738;37.804;2024-02-21T03:07:21;2.31;118.99
75296;DHT22;64623;44.738;37.804;2024-02-21T03:08:24;2.35;118.99
75296;DHT22;64623;44.738;37.804;2024-02-21T03:09:27;2.34;118.99
75296;DHT22;64623;44.738;37.804;2024-02-21T03:10:31;2.34;118.99
75296;DHT22;64623;44.738;37.804;2024-02-21T03:11:35;2.32;118.99
75296;DHT22;64623;44.738;37.804;2024-02-21T03:12:40;2.37;118.99
75296;DHT22;64623;44.738;37.804;2024-02-21T03:13:43;2.40;118.99
75296;DHT22;64623;44.738;37.804;2024-02-21T03:14:47;2.42;118.99
75296;DHT22;64623;44.738;37.804;2024-02-21T03:15:50;2.42;118.99
75296;DHT22;64623;44.738;37.804;2024-02-21T03:16:53;2.45;118.99
75296;DHT22;64623;44.738;37.804;2024-02-21T03:17:56;2.50;118.99
75296;DHT22;64623;44.738;37.804;2024-02-21T03:19:00;2.52;118.99
75296;DHT22;64623;44.738;37.804;2024-02-21T03:20:03;2.56;118.99
75296;DHT22;64623;44.738;37.804;2024-02-21T03:21:13;2.56;118.99
75296;DHT22;64623;44.738;37.804;2024-02-21T03:22:16;2.57;118.99
75296;DHT22;64623;44.738;37.804;2024-02-21T03:23:20;2.59;118.99
75296;DHT22;64623;44.738;37.804;2024-02-21T03:24:23;2.62;118.99
75296;DHT22;64623;44.738;37.804;2024-02-21T03:25:26;2.65;118.99
75296;DHT22;64623;44.738;37.804;2024-02-21T03:26:29;2.67;118.99
75296;DHT22;64623;44.738;37.804;2024-02-21T03:27:33;2.67;118.99
75296;DHT22;64623;44.738;37.804;2024-02-21T03:28:36;2.67;118.99
75296;DHT22;64623;44.738;37.804;2024-02-21T03:29:39;2.67;118.99
75296;DHT22;64623;44.738;37.804;2024-02-21T03:30:43;2.69;118.99
75296;DHT22;64623;44.738;37.804;2024-02-21T03:31:46;2.71;118.99
75296;DHT22;64623;44.738;37.804;2024-02-21T03:32:49;2.74;118.99
75296;DHT22;64623;44.738;37.804;2024-02-21T03:33:52;2.74;118.99
75296;DHT22;64623;44.738;37.804;2024-02-21T03:34:56;2.76;118.99
75296;DHT22;64623;44.738;37.804;2024-02-21T03:35:59;2.78;118.99
75296;DHT22;64623;44.738;37.804;2024-02-21T03:37:02;2.81;118.99
75296;DHT22;64623;44.738;37.804;2024-02-21T03:38:06;2.78;118.99
75296;DHT22;64623;44.738;37.804;2024-02-21T03:39:09;2.76;118.99
75296;DHT22;64623;44.738;37.804;2024-02-21T03:40:12;2.79;118.99
75296;DHT22;64623;44.738;37.804;2024-02-21T03:41:16;2.82;118.99
75296;DHT22;64623;44.738;37.804;2024-02-21T03:42:19;2.81;118.99
75296;DHT22;64623;44.738;37.804;2024-02-21T03:43:23;2.83;118.99
75296;DHT22;64623;44.738;37.804;2024-02-21T03:44:26;2.83;118.99
75296;DHT22;64623;44.738;37.804;2024-02-21T03:45:30;2.81;118.99
75296;DHT22;64623;44.738;37.804;2024-02-21T03:46:33;2.84;118.99
75296;DHT22;64623;44.738;37.804;2024-02-21T03:47:36;2.84;118.99
75296;DHT22;64623;44.738;37.804;2024-02-21T03:48:39;2.83;118.99
75296;DHT22;64623;44.738;37.804;2024-02-21T03:49:42;2.84;118.99
75296;DHT22;64623;44.738;37.804;2024-02-21T03:50:46;2.87;118.99
75296;DHT22;64623;44.738;37.804;2024-02-21T03:51:49;2.89;118.99
75296;DHT22;64623;44.738;37.804;2024-02-21T03:52:52;2.88;118.99
75296;DHT22;64623;44.738;37.804;2024-02-21T03:53:56;2.86;118.99
75296;DHT22;64623;44.738;37.804;2024-02-21T03:54:59;2.82;118.99
75296;DHT22;64623;44.738;37.804;2024-02-21T03:56:04;2.84;118.99
75296;DHT22;64623;44.738;37.804;2024-02-21T03:57:08;2.84;118.99
75296;DHT22;64623;44.738;37.804;2024-02-21T03:58:11;2.85;118.99
75296;DHT22;64623;44.738;37.804;2024-02-21T03:59:15;2.87;118.99
75296;DHT22;64623;44.738;37.804;2024-02-21T04:00:18;2.88;118.99
75296;DHT22;64623;44.738;37.804;2024-02-21T04:01:21;2.90;118.99
75296;DHT22;64623;44.738;37.804;2024-02-21T04:02:25;2.90;118.99
75296;DHT22;64623;44.738;37.804;2024-02-21T04:03:29;2.85;118.99
75296;DHT22;64623;44.738;37.804;2024-02-21T04:04:33;2.84;118.99
75296;DHT22;64623;44.738;37.804;2024-02-21T04:05:36;2.83;118.99
75296;DHT22;64623;44.738;37.804;2024-02-21T04:06:47;2.83;118.99
75296;DHT22;64623;44.738;37.804;2024-02-21T04:07:50;2.85;118.99
75296;DHT22;64623;44.738;37.804;2024-02-21T04:08:55;2.85;118.99
75296;DHT22;64623;44.738;37.804;2024-02-21T04:09:58;2.86;118.99
75296;DHT22;64623;44.738;37.804;2024-02-21T04:11:01;2.85;118.99
75296;DHT22;64623;44.738;37.804;2024-02-21T04:12:05;2.87;118.99
75296;DHT22;64623;44.738;37.804;2024-02-21T04:13:09;2.85;118.99
75296;DHT22;64623;44.738;37.804;2024-02-21T04:14:12;2.86;118.99
75296;DHT22;64623;44.738;37.804;2024-02-21T04:15:18;2.85;118.99
75296;DHT22;64623;44.738;37.804;2024-02-21T04:16:22;2.85;118.99
75296;DHT22;64623;44.738;37.804;2024-02-21T04:17:25;2.89;118.99
75296;DHT22;64623;44.738;37.804;2024-02-21T04:18:28;2.91;118.99
75296;DHT22;64623;44.738;37.804;2024-02-21T04:19:32;2.95;118.99
75296;DHT22;64623;44.738;37.804;2024-02-21T04:20:36;2.99;118.99
75296;DHT22;64623;44.738;37.804;2024-02-21T04:21:39;3.01;118.99
75296;DHT22;64623;44.738;37.804;2024-02-21T04:22:43;2.99;118.99
75296;DHT22;64623;44.738;37.804;2024-02-21T04:23:47;3.03;118.99
75296;DHT22;64623;44.738;37.804;2024-02-21T04:24:51;3.05;118.99
75296;DHT22;64623;44.738;37.804;2024-02-21T04:25:54;3.08;118.99
75296;DHT22;64623;44.738;37.804;2024-02-21T04:26:57;3.09;118.99
75296;DHT22;64623;44.738;37.804;2024-02-21T04:28:01;3.04;118.99
75296;DHT22;64623;44.738;37.804;2024-02-21T04:29:04;3.02;118.99
75296;DHT22;64623;44.738;37.804;2024-02-21T04:30:09;3.00;118.99
75296;DHT22;64623;44.738;37.804;2024-02-21T04:31:12;3.03;118.99
75296;DHT22;64623;44.738;37.804;2024-02-21T04:32:16;3.05;118.99
75296;DHT22;64623;44.738;37.804;2024-02-21T04:33:19;3.08;118.99
75296;DHT22;64623;44.738;37.804;2024-02-21T04:34:22;3.06;118.99
75296;DHT22;64623;44.738;37.804;2024-02-21T04:35:26;3.08;118.99
75296;DHT22;64623;44.738;37.804;2024-02-21T04:36:29;3.11;118.99
75296;DHT22;64623;44.738;37.804;2024-02-21T04:37:33;3.10;118.99
75296;DHT22;64623;44.738;37.804;2024-02-21T04:38:36;3.12;118.99
75296;DHT22;64623;44.738;37.804;2024-02-21T04:39:40;3.13;118.99
75296;DHT22;64623;44.738;37.804;2024-02-21T04:40:43;3.15;118.99
75296;DHT22;64623;44.738;37.804;2024-02-21T04:41:46;3.15;118.99
75296;DHT22;64623;44.738;37.804;2024-02-21T04:42:50;3.18;118.99
75296;DHT22;64623;44.738;37.804;2024-02-21T04:43:55;3.23;118.99
75296;DHT22;64623;44.738;37.804;2024-02-21T04:44:59;3.21;118.99
75296;DHT22;64623;44.738;37.804;2024-02-21T04:46:02;3.20;118.99
75296;DHT22;64623;44.738;37.804;2024-02-21T04:47:05;3.21;118.99
75296;DHT22;64623;44.738;37.804;2024-02-21T04:48:09;3.24;118.99
75296;DHT22;64623;44.738;37.804;2024-02-21T04:49:12;3.24;118.99
75296;DHT22;64623;44.738;37.804;2024-02-21T04:50:16;3.25;118.99
75296;DHT22;64623;44.738;37.804;2024-02-21T04:51:19;3.27;118.99
75296;DHT22;64623;44.738;37.804;2024-02-21T04:52:22;3.27;118.99
75296;DHT22;64623;44.738;37.804;2024-02-21T04:53:26;3.27;118.99
75296;DHT22;64623;44.738;37.804;2024-02-21T04:54:29;3.28;118.99
75296;DHT22;64623;44.738;37.804;2024-02-21T04:55:32;3.33;118.99
75296;DHT22;64623;44.738;37.804;2024-02-21T04:56:36;3.39;118.99
75296;DHT22;64623;44.738;37.804;2024-02-21T04:57:39;3.39;118.99
75296;DHT22;64623;44.738;37.804;2024-02-21T04:58:42;3.41;118.99
75296;DHT22;64623;44.738;37.804;2024-02-21T04:59:46;3.48;118.99
75296;DHT22;64623;44.738;37.804;2024-02-21T05:00:52;3.57;118.99
75296;DHT22;64623;44.738;37.804;2024-02-21T05:01:57;3.60;118.99
75296;DHT22;64623;44.738;37.804;2024-02-21T05:03:01;3.67;118.99
75296;DHT22;64623;44.738;37.804;2024-02-21T05:04:05;3.77;118.99
75296;DHT22;64623;44.738;37.804;2024-02-21T05:05:08;3.84;118.99
75296;DHT22;64623;44.738;37.804;2024-02-21T05:06:12;3.88;118.99
75296;DHT22;64623;44.738;37.804;2024-02-21T05:07:15;3.99;118.99
75296;DHT22;64623;44.738;37.804;2024-02-21T05:08:19;4.13;118.99
75296;DHT22;64623;44.738;37.804;2024-02-21T05:09:22;4.31;118.99
75296;DHT22;64623;44.738;37.804;2024-02-21T05:10:26;4.46;118.99
75296;DHT22;64623;44.738;37.804;2024-02-21T05:11:29;4.51;118.99
75296;DHT22;64623;44.738;37.804;2024-02-21T05:12:32;4.63;118.99
75296;DHT22;64623;44.738;37.804;2024-02-21T05:13:36;4.78;118.99
75296;DHT22;64623;44.738;37.804;2024-02-21T05:14:39;4.94;118.99
75296;DHT22;64623;44.738;37.804;2024-02-21T05:15:42;5.12;118.99
75296;DHT22;64623;44.738;37.804;2024-02-21T05:16:45;5.15;118.99
75296;DHT22;64623;44.738;37.804;2024-02-21T05:17:49;5.12;118.99
75296;DHT22;64623;44.738;37.804;2024-02-21T05:18:52;5.07;118.99
75296;DHT22;64623;44.738;37.804;2024-02-21T05:19:55;5.04;118.99
75296;DHT22;64623;44.738;37.804;2024-02-21T05:20:59;5.05;118.99
75296;DHT22;64623;44.738;37.804;2024-02-21T05:22:02;5.03;118.99
75296;DHT22;64623;44.738;37.804;2024-02-21T05:23:05;5.08;118.99
75296;DHT22;64623;44.738;37.804;2024-02-21T05:24:09;5.11;118.99
75296;DHT22;64623;44.738;37.804;2024-02-21T05:25:12;5.18;118.99
75296;DHT22;64623;44.738;37.804;2024-02-21T05:26:25;5.07;118.99
75296;DHT22;64623;44.738;37.804;2024-02-21T05:27:28;4.96;118.99
75296;DHT22;64623;44.738;37.804;2024-02-21T05:28:32;4.98;118.99
75296;DHT22;64623;44.738;37.804;2024-02-21T05:29:35;5.03;118.99
75296;DHT22;64623;44.738;37.804;2024-02-21T05:30:38;5.18;118.99
75296;DHT22;64623;44.738;37.804;2024-02-21T05:32:55;5.65;118.99
75296;DHT22;64623;44.738;37.804;2024-02-21T05:33:59;5.93;118.99
75296;DHT22;64623;44.738;37.804;2024-02-21T05:35:03;6.10;118.99
75296;DHT22;64623;44.738;37.804;2024-02-21T05:36:07;6.29;118.99
75296;DHT22;64623;44.738;37.804;2024-02-21T05:37:12;6.57;118.99
75296;DHT22;64623;44.738;37.804;2024-02-21T05:38:16;6.75;118.99
75296;DHT22;64623;44.738;37.804;2024-02-21T05:39:20;6.84;118.99
75296;DHT22;64623;44.738;37.804;2024-02-21T05:40:25;6.95;118.99
75296;DHT22;64623;44.738;37.804;2024-02-21T05:41:29;7.05;118.99
75296;DHT22;64623;44.738;37.804;2024-02-21T05:42:32;7.11;118.99
75296;DHT22;64623;44.738;37.804;2024-02-21T05:43:35;7.08;117.25
75296;DHT22;64623;44.738;37.804;2024-02-21T05:44:38;7.04;118.99
75296;DHT22;64623;44.738;37.804;2024-02-21T05:45:42;7.02;114.57
75296;DHT22;64623;44.738;37.804;2024-02-21T05:46:46;7.01;113.23
75296;DHT22;64623;44.738;37.804;2024-02-21T05:47:49;6.98;113.72
75296;DHT22;64623;44.738;37.804;2024-02-21T05:48:53;6.99;114.61
75296;DHT22;64623;44.738;37.804;2024-02-21T05:49:56;7.00;113.68
75296;DHT22;64623;44.738;37.804;2024-02-21T05:51:01;7.26;106.37
75296;DHT22;64623;44.738;37.804;2024-02-21T05:52:06;7.59;105.05
75296;DHT22;64623;44.738;37.804;2024-02-21T05:53:09;7.98;98.56
75296;DHT22;64623;44.738;37.804;2024-02-21T05:54:14;8.18;94.21
75296;DHT22;64623;44.738;37.804;2024-02-21T05:55:17;8.33;97.45
75296;DHT22;64623;44.738;37.804;2024-02-21T05:56:20;8.37;90.95
75296;DHT22;64623;44.738;37.804;2024-02-21T05:57:23;8.57;86.92
75296;DHT22;64623;44.738;37.804;2024-02-21T05:58:27;8.73;85.48
75296;DHT22;64623;44.738;37.804;2024-02-21T05:59:30;8.86;87.28
75296;DHT22;64623;44.738;37.804;2024-02-21T06:00:33;8.80;88.75
75296;DHT22;64623;44.738;37.804;2024-02-21T06:01:37;8.79;83.94
75296;DHT22;64623;44.738;37.804;2024-02-21T06:02:41;8.77;85.73
75296;DHT22;64623;44.738;37.804;2024-02-21T06:03:45;8.82;88.92
75296;DHT22;64623;44.738;37.804;2024-02-21T06:04:48;8.77;87.99
75296;DHT22;64623;44.738;37.804;2024-02-21T06:05:52;8.76;80.88
75296;DHT22;64623;44.738;37.804;2024-02-21T06:06:55;8.71;82.73
75296;DHT22;64623;44.738;37.804;2024-02-21T06:07:58;8.67;84.45
75296;DHT22;64623;44.738;37.804;2024-02-21T06:09:02;8.92;87.84
75296;DHT22;64623;44.738;37.804;2024-02-21T06:10:07;9.01;82.13
75296;DHT22;64623;44.738;37.804;2024-02-21T06:11:11;9.05;84.24
75296;DHT22;64623;44.738;37.804;2024-02-21T06:12:14;8.95;77.31
75296;DHT22;64623;44.738;37.804;2024-02-21T06:13:17;8.89;77.41
75296;DHT22;64623;44.738;37.804;2024-02-21T06:14:21;8.92;79.65
75296;DHT22;64623;44.738;37.804;2024-02-21T06:15:24;8.92;79.62
75296;DHT22;64623;44.738;37.804;2024-02-21T06:16:27;8.91;81.05
75296;DHT22;64623;44.738;37.804;2024-02-21T06:17:31;8.93;81.84
75296;DHT22;64623;44.738;37.804;2024-02-21T06:18:35;8.86;91.44
75296;DHT22;64623;44.738;37.804;2024-02-21T06:19:42;8.89;82.92
75296;DHT22;64623;44.738;37.804;2024-02-21T06:20:46;8.81;82.04
75296;DHT22;64623;44.738;37.804;2024-02-21T06:21:49;8.81;84.39
75296;DHT22;64623;44.738;37.804;2024-02-21T06:22:53;8.85;85.45
75296;DHT22;64623;44.738;37.804;2024-02-21T06:23:57;9.16;79.56
75296;DHT22;64623;44.738;37.804;2024-02-21T06:25:00;9.69;75.00
75296;DHT22;64623;44.738;37.804;2024-02-21T06:26:03;9.99;68.38
75296;DHT22;64623;44.738;37.804;2024-02-21T06:27:06;10.09;70.33
75296;DHT22;64623;44.738;37.804;2024-02-21T06:28:11;10.40;70.01
75296;DHT22;64623;44.738;37.804;2024-02-21T06:29:14;10.30;72.54
75296;DHT22;64623;44.738;37.804;2024-02-21T06:30:18;10.28;70.37
75296;DHT22;64623;44.738;37.804;2024-02-21T06:31:21;10.20;70.71
75296;DHT22;64623;44.738;37.804;2024-02-21T06:32:24;10.24;72.61
75296;DHT22;64623;44.738;37.804;2024-02-21T06:33:28;10.30;72.43
75296;DHT22;64623;44.738;37.804;2024-02-21T06:34:31;10.70;72.28
75296;DHT22;64623;44.738;37.804;2024-02-21T06:35:36;11.22;64.30
75296;DHT22;64623;44.738;37.804;2024-02-21T06:36:39;11.59;65.39
75296;DHT22;64623;44.738;37.804;2024-02-21T06:37:42;11.96;67.81
75296;DHT22;64623;44.738;37.804;2024-02-21T06:38:48;12.02;62.43
75296;DHT22;64623;44.738;37.804;2024-02-21T06:39:52;12.61;61.67